Time;durP1;ratioP1;P1;durP2;ratioP2;P2;SDS_P1;SDS_P2;PMS_P1;PMS_P2;Temp;Humidity;BMP_temperature;BMP_pressure;BME280_temperature;BME280_humidity;BME280_pressure;Samples;Min_cycle;Max_cycle;Signal;HPM_P1;HPM_P2
2021/09/20 00:00:38;;;;;;;5.93;1.30;;;11.40;99.90;;;;;;4926523;29;20070;-87
2021/09/20 00:03:04;;;;;;;4.03;1.20;;;11.40;99.90;;;;;;4926440;29;20228;-88
2021/09/20 00:05:29;;;;;;;6.22;1.17;;;11.40;99.90;;;;;;4926362;29;20075;-87
2021/09/20 00:07:55;;;;;;;3.53;1.17;;;11.30;99.90;;;;;;4926925;29;20054;-87
2021/09/20 00:10:21;;;;;;;3.22;1.23;;;11.30;99.90;;;;;;4926167;29;20075;-88
2021/09/20 00:12:48;;;;;;;3.17;1.58;;;11.30;99.90;;;;;;4943479;29;20020;-88
2021/09/20 00:15:13;;;;;;;5.05;1.50;;;11.30;99.90;;;;;;4927056;29;20058;-88
2021/09/20 00:17:39;;;;;;;5.93;1.67;;;11.20;99.90;;;;;;4927016;29;20020;-87
2021/09/20 00:20:07;;;;;;;3.65;0.95;;;11.20;99.90;;;;;;4926791;29;20044;-88
2021/09/20 00:22:34;;;;;;;2.15;1.00;;;11.20;99.90;;;;;;4926464;29;20024;-88
2021/09/20 00:25:00;;;;;;;2.85;1.00;;;11.20;99.90;;;;;;4926414;29;20035;-87
2021/09/20 00:27:25;;;;;;;3.72;1.15;;;11.20;99.90;;;;;;4926117;29;20035;-88
2021/09/20 00:29:52;;;;;;;3.38;0.90;;;11.20;99.90;;;;;;4943623;29;20518;-88
2021/09/20 00:32:18;;;;;;;6.90;1.52;;;11.10;99.90;;;;;;4926525;29;20058;-87
2021/09/20 00:34:44;;;;;;;4.35;1.13;;;11.10;99.90;;;;;;4926355;29;20393;-87
2021/09/20 00:37:10;;;;;;;6.63;1.40;;;11.10;99.90;;;;;;4926564;29;20110;-87
2021/09/20 00:39:37;;;;;;;3.58;0.95;;;11.10;99.90;;;;;;4926105;29;20039;-87
2021/09/20 00:42:04;;;;;;;2.67;1.05;;;11.10;99.90;;;;;;4926001;29;20485;-86
2021/09/20 00:44:30;;;;;;;5.70;1.27;;;11.10;99.90;;;;;;4926183;29;20024;-87
2021/09/20 00:46:55;;;;;;;4.25;1.40;;;11.10;99.90;;;;;;4926115;29;20039;-88
2021/09/20 00:49:21;;;;;;;3.95;0.98;;;11.00;99.90;;;;;;4925902;29;20035;-88
2021/09/20 00:51:47;;;;;;;5.47;1.30;;;11.00;99.90;;;;;;4926003;29;20130;-88
2021/09/20 00:54:12;;;;;;;4.57;1.25;;;10.90;99.90;;;;;;4943139;29;20177;-87
2021/09/20 00:56:39;;;;;;;6.13;1.45;;;11.00;99.90;;;;;;4925808;29;20188;-88
2021/09/20 00:59:06;;;;;;;5.72;2.00;;;11.00;99.90;;;;;;4925212;29;20055;-88
2021/09/20 01:01:33;;;;;;;6.75;1.30;;;10.90;99.90;;;;;;4925836;29;20501;-88
2021/09/20 01:03:59;;;;;;;4.47;1.35;;;10.90;99.90;;;;;;4925719;29;20115;-88
2021/09/20 01:06:24;;;;;;;4.55;1.33;;;10.90;99.90;;;;;;4925668;29;20447;-87
2021/09/20 01:08:50;;;;;;;4.40;1.10;;;10.90;99.90;;;;;;4925445;29;20164;-87
2021/09/20 01:11:16;;;;;;;7.55;1.23;;;10.90;99.90;;;;;;4925529;29;20086;-89
2021/09/20 01:13:41;;;;;;;3.40;1.13;;;10.90;99.90;;;;;;4925705;29;20036;-88
2021/09/20 01:16:07;;;;;;;4.65;1.27;;;10.90;99.90;;;;;;4925449;29;20063;-88
2021/09/20 01:18:33;;;;;;;6.70;1.40;;;10.80;99.90;;;;;;4925646;29;20024;-88
2021/09/20 01:20:59;;;;;;;3.95;1.65;;;10.80;99.90;;;;;;4942420;29;20035;-87
2021/09/20 01:23:24;;;;;;;3.58;1.00;;;10.80;99.90;;;;;;4942493;29;20114;-88
2021/09/20 01:25:50;;;;;;;10.73;1.17;;;10.80;99.90;;;;;;4925460;29;20074;-88
2021/09/20 01:28:16;;;;;;;6.20;1.10;;;10.80;99.90;;;;;;4925310;29;20058;-88
2021/09/20 01:30:42;;;;;;;4.53;1.05;;;10.80;99.90;;;;;;4925473;29;20043;-88
2021/09/20 01:33:07;;;;;;;5.43;1.25;;;10.80;99.90;;;;;;4925537;29;20032;-88
2021/09/20 01:35:33;;;;;;;4.60;1.25;;;10.80;99.90;;;;;;4925218;29;20039;-88
2021/09/20 01:37:59;;;;;;;5.93;1.30;;;10.80;99.90;;;;;;4925707;29;20038;-89
2021/09/20 01:40:26;;;;;;;5.20;1.35;;;10.80;99.90;;;;;;4925139;29;20036;-88
2021/09/20 01:42:52;;;;;;;6.85;1.20;;;10.80;99.90;;;;;;4925622;29;20036;-88
2021/09/20 01:45:18;;;;;;;5.07;1.10;;;10.80;99.90;;;;;;4923952;29;20103;-89
2021/09/20 01:47:44;;;;;;;6.13;1.10;;;10.80;99.90;;;;;;4925139;29;20024;-89
2021/09/20 01:50:12;;;;;;;6.45;1.20;;;10.80;99.90;;;;;;4924874;29;20031;-89
2021/09/20 01:52:38;;;;;;;8.63;1.30;;;10.80;99.90;;;;;;4925001;29;20027;-89
2021/09/20 01:55:06;;;;;;;3.33;1.10;;;10.80;99.90;;;;;;4924696;29;20055;-89
2021/09/20 01:57:32;;;;;;;3.33;0.80;;;10.80;99.90;;;;;;4924755;29;20027;-88
2021/09/20 01:59:58;;;;;;;5.85;1.00;;;10.70;99.90;;;;;;4924436;29;20122;-89
2021/09/20 02:02:24;;;;;;;2.97;0.95;;;10.80;99.90;;;;;;4924821;29;20075;-88
2021/09/20 02:04:50;;;;;;;5.65;0.88;;;10.70;99.90;;;;;;4926035;29;20024;-87
2021/09/20 02:07:16;;;;;;;6.82;1.67;;;10.70;99.90;;;;;;4931892;29;20039;-88
2021/09/20 02:09:42;;;;;;;6.30;0.90;;;10.70;99.90;;;;;;4937710;29;20108;-88
2021/09/20 02:12:08;;;;;;;4.28;0.93;;;10.60;99.90;;;;;;4937457;29;20098;-88
2021/09/20 02:14:33;;;;;;;6.47;1.00;;;10.60;99.90;;;;;;4939688;29;20012;-88
2021/09/20 02:16:59;;;;;;;6.63;1.02;;;10.60;99.90;;;;;;4941328;29;20035;-89
2021/09/20 02:19:25;;;;;;;4.38;1.25;;;10.60;99.90;;;;;;4930064;29;20039;-88
2021/09/20 02:21:51;;;;;;;5.47;1.08;;;10.50;99.90;;;;;;4928455;29;20442;-89
2021/09/20 02:24:17;;;;;;;7.72;2.35;;;10.50;99.90;;;;;;4928248;29;20024;-88
2021/09/20 02:26:42;;;;;;;3.42;0.90;;;10.50;99.90;;;;;;4927766;29;20573;-88
2021/09/20 02:29:08;;;;;;;1.73;0.90;;;10.50;99.90;;;;;;4928814;29;20032;-88
2021/09/20 02:31:34;;;;;;;2.92;0.90;;;10.50;99.90;;;;;;4927794;29;20031;-88
2021/09/20 02:34:00;;;;;;;2.20;0.90;;;10.50;99.90;;;;;;4928510;29;20043;-88
2021/09/20 02:36:25;;;;;;;4.85;1.20;;;10.40;99.90;;;;;;4945992;29;20027;-88
2021/09/20 02:38:51;;;;;;;2.58;1.10;;;10.40;99.90;;;;;;4928787;29;20035;-88
2021/09/20 02:41:17;;;;;;;1.75;0.88;;;10.40;99.90;;;;;;4929019;29;20064;-88
2021/09/20 02:43:44;;;;;;;4.97;1.30;;;10.30;99.90;;;;;;4929125;29;20024;-89
2021/09/20 02:46:10;;;;;;;2.40;0.95;;;10.30;99.90;;;;;;4928924;29;20375;-88
2021/09/20 02:48:35;;;;;;;5.75;0.95;;;10.30;99.90;;;;;;4928504;29;20032;-88
2021/09/20 02:51:02;;;;;;;4.05;0.90;;;10.30;99.90;;;;;;4928316;29;20525;-88
2021/09/20 02:53:28;;;;;;;4.22;1.38;;;10.30;99.90;;;;;;4944791;29;20032;-88
2021/09/20 02:55:54;;;;;;;4.95;1.30;;;10.30;99.90;;;;;;4928125;29;20043;-88
2021/09/20 02:58:21;;;;;;;2.95;0.80;;;10.30;99.90;;;;;;4927673;29;20043;-88
2021/09/20 03:00:47;;;;;;;1.73;0.80;;;10.30;99.90;;;;;;4927769;29;20039;-88
2021/09/20 03:03:13;;;;;;;2.60;1.02;;;10.30;99.90;;;;;;4927641;29;20397;-88
2021/09/20 03:05:39;;;;;;;4.18;0.80;;;10.40;99.90;;;;;;4928156;29;20114;-88
2021/09/20 03:08:05;;;;;;;5.50;1.00;;;10.40;99.90;;;;;;4928243;29;20034;-88
2021/09/20 03:10:32;;;;;;;6.15;1.05;;;10.30;99.90;;;;;;4928050;29;20556;-88
2021/09/20 03:12:58;;;;;;;5.68;1.00;;;10.40;99.90;;;;;;4927788;29;20052;-88
2021/09/20 03:15:24;;;;;;;5.05;2.13;;;10.30;99.90;;;;;;4911970;29;20032;-88
2021/09/20 03:17:50;;;;;;;4.90;1.27;;;10.30;99.90;;;;;;4945352;29;20059;-88
2021/09/20 03:20:16;;;;;;;4.50;0.90;;;10.30;99.90;;;;;;4927428;29;20040;-88
2021/09/20 03:22:42;;;;;;;3.55;1.08;;;10.30;99.90;;;;;;4927265;29;20052;-88
2021/09/20 03:25:09;;;;;;;2.13;1.38;;;10.20;99.90;;;;;;4927243;29;20032;-88
2021/09/20 03:27:34;;;;;;;6.45;1.73;;;10.20;99.90;;;;;;4927195;29;20047;-88
2021/09/20 03:30:01;;;;;;;5.15;1.05;;;10.10;99.90;;;;;;4927510;29;20032;-88
2021/09/20 03:32:26;;;;;;;3.10;0.82;;;10.10;99.90;;;;;;4927289;29;20144;-88
2021/09/20 03:34:52;;;;;;;2.20;1.00;;;10.10;99.90;;;;;;4926968;29;20081;-88
2021/09/20 03:37:18;;;;;;;5.60;0.90;;;10.00;99.90;;;;;;4927216;29;20039;-88
2021/09/20 03:39:43;;;;;;;4.10;1.10;;;10.00;99.90;;;;;;4927100;29;20036;-88
2021/09/20 03:42:09;;;;;;;4.35;1.00;;;10.00;99.90;;;;;;4926903;29;20036;-87
2021/09/20 03:44:34;;;;;;;2.90;0.98;;;9.90;99.90;;;;;;4926239;29;20079;-88
2021/09/20 03:47:00;;;;;;;2.85;0.85;;;9.90;99.90;;;;;;4926400;29;20062;-88
2021/09/20 03:49:26;;;;;;;3.00;0.75;;;9.90;99.90;;;;;;4926538;29;20106;-88
2021/09/20 03:51:52;;;;;;;2.92;0.85;;;9.80;99.90;;;;;;4926635;29;20039;-88
2021/09/20 03:54:17;;;;;;;3.63;1.10;;;9.80;99.90;;;;;;4926758;29;20042;-90
2021/09/20 03:56:43;;;;;;;3.35;0.90;;;9.70;99.90;;;;;;4943323;29;20028;-88
2021/09/20 03:59:09;;;;;;;4.97;1.97;;;9.70;99.90;;;;;;4925886;29;20051;-88
2021/09/20 04:01:35;;;;;;;3.67;1.20;;;9.70;99.90;;;;;;4926118;29;20438;-88
2021/09/20 04:04:01;;;;;;;3.70;0.77;;;9.70;99.90;;;;;;4926198;29;20060;-88
2021/09/20 04:06:26;;;;;;;2.30;0.88;;;9.60;99.90;;;;;;4926394;29;20039;-87
2021/09/20 04:08:53;;;;;;;1.58;0.80;;;9.60;99.90;;;;;;4925918;29;20067;-88
2021/09/20 04:11:19;;;;;;;1.90;0.80;;;9.60;99.90;;;;;;4925638;29;20028;-87
2021/09/20 04:13:45;;;;;;;4.97;1.20;;;9.60;99.90;;;;;;4926051;29;20034;-88
2021/09/20 04:16:10;;;;;;;1.73;0.82;;;9.50;99.90;;;;;;4926333;29;20046;-88
2021/09/20 04:18:36;;;;;;;4.95;0.90;;;9.50;99.90;;;;;;4926139;29;20031;-88
2021/09/20 04:21:02;;;;;;;4.38;0.80;;;9.50;99.90;;;;;;4926248;29;20039;-87
2021/09/20 04:23:27;;;;;;;3.03;1.00;;;9.50;99.90;;;;;;4926152;29;20027;-87
2021/09/20 04:25:53;;;;;;;2.75;0.65;;;9.50;99.90;;;;;;4926025;29;20118;-87
2021/09/20 04:28:20;;;;;;;6.40;0.88;;;9.40;99.90;;;;;;4925905;29;20070;-87
2021/09/20 04:30:46;;;;;;;3.20;1.13;;;9.40;99.90;;;;;;4926197;29;20024;-88
2021/09/20 04:33:13;;;;;;;3.45;0.95;;;9.40;99.90;;;;;;4925926;29;20094;-87
2021/09/20 04:35:39;;;;;;;6.70;1.23;;;9.30;99.90;;;;;;4943151;29;20441;-87
2021/09/20 04:38:06;;;;;;;2.15;0.85;;;9.30;99.90;;;;;;4925774;29;20144;-88
2021/09/20 04:40:32;;;;;;;4.10;0.80;;;9.30;99.90;;;;;;4925763;29;20075;-88
2021/09/20 04:42:58;;;;;;;3.53;0.77;;;9.20;99.90;;;;;;4925469;29;20023;-88
2021/09/20 04:45:24;;;;;;;2.67;1.13;;;9.20;99.90;;;;;;4925513;29;20031;-88
2021/09/20 04:47:49;;;;;;;1.58;0.90;;;9.20;99.90;;;;;;4942991;29;20023;-88
2021/09/20 04:50:15;;;;;;;3.00;1.10;;;9.10;99.90;;;;;;4925704;29;20032;-87
2021/09/20 04:52:40;;;;;;;2.88;1.15;;;9.10;99.90;;;;;;4923480;29;20030;-88
2021/09/20 04:55:06;;;;;;;3.30;1.40;;;9.10;99.90;;;;;;4926197;29;20039;-88
2021/09/20 04:57:32;;;;;;;3.33;1.15;;;9.10;99.90;;;;;;4926280;29;20047;-88
2021/09/20 04:59:58;;;;;;;2.85;1.13;;;9.10;99.90;;;;;;4925300;29;20405;-88
2021/09/20 05:02:23;;;;;;;4.07;1.00;;;9.10;99.90;;;;;;4925573;29;20028;-87
2021/09/20 05:04:49;;;;;;;3.60;0.90;;;9.10;99.90;;;;;;4925782;29;20027;-88
2021/09/20 05:07:15;;;;;;;4.55;1.10;;;9.10;99.90;;;;;;4925841;29;20126;-88
2021/09/20 05:09:40;;;;;;;3.65;1.17;;;9.10;99.90;;;;;;4925686;29;20031;-88
2021/09/20 05:12:06;;;;;;;2.30;0.90;;;9.10;99.90;;;;;;4925516;29;20042;-88
2021/09/20 05:14:32;;;;;;;4.63;0.80;;;9.10;99.90;;;;;;4925675;29;20035;-88
2021/09/20 05:16:58;;;;;;;3.10;1.00;;;9.00;99.90;;;;;;4925540;29;20051;-88
2021/09/20 05:19:25;;;;;;;2.40;0.75;;;9.10;99.90;;;;;;4925294;29;20047;-88
2021/09/20 05:21:51;;;;;;;2.42;0.60;;;9.10;99.90;;;;;;4925536;29;20027;-88
2021/09/20 05:24:16;;;;;;;0.80;0.57;;;9.10;99.90;;;;;;4925317;29;20031;-88
2021/09/20 05:26:42;;;;;;;1.58;0.68;;;9.10;99.90;;;;;;4925041;29;20035;-88
2021/09/20 05:29:08;;;;;;;5.75;1.05;;;9.10;99.90;;;;;;4925224;29;20062;-88
2021/09/20 05:31:34;;;;;;;5.35;0.80;;;9.10;99.90;;;;;;4924976;29;20485;-88
2021/09/20 05:34:00;;;;;;;2.90;0.80;;;9.10;99.90;;;;;;4925255;29;20512;-88
2021/09/20 05:36:25;;;;;;;4.30;0.85;;;9.10;99.90;;;;;;4925015;29;20505;-88
2021/09/20 05:38:51;;;;;;;1.08;0.57;;;9.20;99.90;;;;;;4925181;29;20030;-89
2021/09/20 05:41:17;;;;;;;3.72;0.80;;;9.20;99.90;;;;;;4924949;29;20035;-88
2021/09/20 05:43:42;;;;;;;4.60;0.93;;;9.20;99.90;;;;;;4942184;29;20021;-88
2021/09/20 05:46:08;;;;;;;4.55;2.50;;;9.20;99.90;;;;;;4924086;29;20042;-88
2021/09/20 05:48:34;;;;;;;4.60;1.15;;;9.20;99.90;;;;;;4925242;29;20055;-88
2021/09/20 05:50:59;;;;;;;5.45;0.65;;;9.20;99.90;;;;;;4924777;29;20027;-88
2021/09/20 05:53:25;;;;;;;3.70;0.82;;;9.10;99.90;;;;;;4924849;29;20048;-88
2021/09/20 05:55:51;;;;;;;4.03;1.10;;;9.10;99.90;;;;;;4928608;29;20087;-87
2021/09/20 05:58:17;;;;;;;3.08;0.80;;;9.10;99.90;;;;;;4928165;29;20044;-88
2021/09/20 06:00:43;;;;;;;3.95;0.80;;;9.10;99.90;;;;;;4927676;29;20513;-88
2021/09/20 06:03:09;;;;;;;1.92;0.82;;;9.00;99.90;;;;;;4927809;29;20031;-88
2021/09/20 06:05:38;;;;;;;3.03;0.70;;;9.00;99.90;;;;;;4928451;29;20118;-88
2021/09/20 06:08:05;;;;;;;2.17;0.60;;;9.00;99.90;;;;;;4928057;29;20032;-87
2021/09/20 06:10:31;;;;;;;2.47;0.70;;;9.00;99.90;;;;;;4927817;29;20107;-88
2021/09/20 06:12:57;;;;;;;4.50;0.85;;;9.00;99.90;;;;;;4928081;29;20027;-87
2021/09/20 06:15:23;;;;;;;2.50;0.73;;;8.90;99.90;;;;;;4926813;29;20028;-87
2021/09/20 06:17:48;;;;;;;4.97;0.60;;;9.00;99.90;;;;;;4929682;29;20059;-87
2021/09/20 06:20:14;;;;;;;4.20;0.80;;;9.00;99.90;;;;;;4930095;29;20040;-86
2021/09/20 06:22:40;;;;;;;2.20;0.70;;;8.90;99.90;;;;;;4946755;29;20039;-87
2021/09/20 06:25:07;;;;;;;1.02;0.73;;;8.90;99.90;;;;;;4918360;29;20028;-85
2021/09/20 06:27:33;;;;;;;1.80;0.70;;;8.90;99.90;;;;;;4944038;29;20028;-87
2021/09/20 06:29:59;;;;;;;2.42;0.70;;;8.90;99.90;;;;;;4926788;29;20079;-87
2021/09/20 06:32:24;;;;;;;1.05;0.50;;;8.90;99.90;;;;;;4927502;29;20071;-87
2021/09/20 06:34:50;;;;;;;4.05;0.90;;;8.90;99.90;;;;;;4927154;29;20062;-88
2021/09/20 06:37:16;;;;;;;8.13;0.82;;;8.90;99.90;;;;;;4927228;29;20062;-88
2021/09/20 06:39:42;;;;;;;2.47;0.73;;;8.90;99.90;;;;;;4924512;29;20035;-87
2021/09/20 06:42:08;;;;;;;2.15;0.88;;;8.90;99.90;;;;;;4928767;29;20123;-87
2021/09/20 06:44:34;;;;;;;3.47;0.60;;;8.90;99.90;;;;;;4919945;29;20051;-86
2021/09/20 06:47:00;;;;;;;3.20;0.90;;;8.90;99.90;;;;;;4926271;29;20030;-87
2021/09/20 06:49:26;;;;;;;4.03;0.90;;;8.80;99.90;;;;;;4930879;28;20106;-88
2021/09/20 06:51:52;;;;;;;2.47;1.00;;;8.80;99.90;;;;;;4936167;29;20040;-88
2021/09/20 06:54:18;;;;;;;3.95;0.60;;;8.80;99.90;;;;;;4921366;29;20389;-88
2021/09/20 06:56:44;;;;;;;5.57;0.70;;;8.90;99.90;;;;;;4923647;29;20031;-88
2021/09/20 06:59:10;;;;;;;2.30;0.60;;;8.90;99.90;;;;;;4920858;29;20043;-88
2021/09/20 07:01:35;;;;;;;17.15;3.00;;;8.80;99.90;;;;;;4926356;29;20390;-88
2021/09/20 07:04:01;;;;;;;4.20;0.85;;;8.90;99.90;;;;;;4928054;29;20505;-88
2021/09/20 07:06:26;;;;;;;2.08;0.60;;;9.10;99.90;;;;;;4915721;29;20517;-88
2021/09/20 07:08:52;;;;;;;2.58;0.80;;;9.20;99.90;;;;;;4911606;29;20107;-87
2021/09/20 07:11:18;;;;;;;1.80;0.80;;;9.30;99.90;;;;;;4936417;29;20050;-88
2021/09/20 07:13:44;;;;;;;1.45;0.98;;;9.40;99.90;;;;;;4917864;29;20058;-87
2021/09/20 07:16:10;;;;;;;2.92;0.73;;;9.60;99.90;;;;;;4919300;29;20030;-88
2021/09/20 07:18:36;;;;;;;3.80;0.40;;;9.70;99.90;;;;;;4920474;29;20042;-88
2021/09/20 07:21:02;;;;;;;2.28;0.60;;;9.70;99.90;;;;;;4921013;29;20130;-89
2021/09/20 07:23:28;;;;;;;1.83;0.60;;;9.80;99.90;;;;;;4921317;29;20024;-88
2021/09/20 07:25:53;;;;;;;2.10;0.60;;;9.90;99.90;;;;;;4921433;29;20051;-89
2021/09/20 07:28:19;;;;;;;3.00;0.50;;;10.00;99.90;;;;;;4920794;29;20024;-86
2021/09/20 07:30:45;;;;;;;2.03;0.50;;;10.10;99.90;;;;;;4921011;29;20027;-87
2021/09/20 07:33:11;;;;;;;1.60;0.80;;;10.20;99.90;;;;;;4920596;29;20062;-86
2021/09/20 07:35:37;;;;;;;1.02;0.70;;;10.20;99.90;;;;;;4920630;29;20630;-89
2021/09/20 07:38:03;;;;;;;3.22;0.60;;;10.30;99.90;;;;;;4938302;29;20023;-90
2021/09/20 07:40:29;;;;;;;3.03;0.75;;;10.40;99.90;;;;;;4927326;29;20040;-87
2021/09/20 07:42:56;;;;;;;8.15;0.80;;;10.50;99.90;;;;;;4919847;29;20034;-87
2021/09/20 07:45:22;;;;;;;1.65;0.47;;;10.50;99.90;;;;;;4919482;29;20524;-88
2021/09/20 07:47:48;;;;;;;1.08;0.60;;;10.60;99.90;;;;;;4915297;29;20031;-87
2021/09/20 07:50:15;;;;;;;2.75;0.90;;;10.60;99.90;;;;;;4928751;29;20035;-87
2021/09/20 07:52:42;;;;;;;1.38;0.57;;;10.60;99.90;;;;;;4934186;29;20024;-87
2021/09/20 07:55:08;;;;;;;1.33;0.50;;;10.60;99.90;;;;;;4918708;29;20035;-91
2021/09/20 07:57:34;;;;;;;2.53;0.60;;;10.70;99.90;;;;;;4918885;29;20024;-90
2021/09/20 08:00:01;;;;;;;1.58;0.60;;;10.70;99.90;;;;;;4934316;29;20505;-90
2021/09/20 08:02:27;;;;;;;2.42;0.82;;;10.80;99.90;;;;;;4937070;29;20042;-88
2021/09/20 08:04:52;;;;;;;0.82;0.52;;;10.90;99.90;;;;;;4920939;29;20031;-90
2021/09/20 08:07:18;;;;;;;1.45;0.55;;;11.00;99.90;;;;;;4937757;29;20114;-89
2021/09/20 08:09:44;;;;;;;1.08;0.90;;;11.10;99.90;;;;;;4920759;29;20058;-89
2021/09/20 08:12:09;;;;;;;2.78;0.90;;;11.20;99.90;;;;;;4920389;29;20027;-86
2021/09/20 08:14:36;;;;;;;1.88;0.90;;;11.30;99.90;;;;;;4936895;29;20028;-86
2021/09/20 08:17:02;;;;;;;3.42;0.80;;;11.50;99.90;;;;;;4921461;29;20449;-86
2021/09/20 08:19:27;;;;;;;3.80;0.70;;;11.70;99.90;;;;;;4924244;29;20489;-87
2021/09/20 08:21:53;;;;;;;1.88;0.50;;;11.80;99.90;;;;;;4919150;29;20023;-87
2021/09/20 08:24:19;;;;;;;3.20;0.60;;;12.00;99.90;;;;;;4918491;29;20055;-86
2021/09/20 08:26:45;;;;;;;1.13;0.50;;;12.20;99.90;;;;;;4918507;29;20024;-86
2021/09/20 08:29:11;;;;;;;1.13;0.52;;;12.30;99.90;;;;;;4918534;29;20534;-87
2021/09/20 08:31:37;;;;;;;1.80;0.70;;;12.50;99.90;;;;;;4918514;29;20030;-86
2021/09/20 08:34:03;;;;;;;0.80;0.43;;;12.70;99.90;;;;;;4932207;29;20031;-87
2021/09/20 08:36:28;;;;;;;2.35;0.60;;;12.80;99.90;;;;;;4935365;29;20031;-86
2021/09/20 08:38:54;;;;;;;1.85;0.55;;;13.00;99.90;;;;;;4924039;29;20019;-86
2021/09/20 08:41:20;;;;;;;3.67;0.60;;;13.10;99.90;;;;;;4935922;29;20514;-86
2021/09/20 08:43:46;;;;;;;2.28;0.65;;;13.30;99.90;;;;;;4912791;29;20066;-87
2021/09/20 08:46:13;;;;;;;4.43;0.70;;;13.40;99.90;;;;;;4935397;29;20126;-87
2021/09/20 08:48:45;;;;;;;2.20;0.63;;;13.60;99.90;;;;;;4936168;29;20023;-84
2021/09/20 08:51:13;;;;;;;0.65;0.40;;;13.70;99.90;;;;;;4936364;29;20178;-85
2021/09/20 08:53:39;;;;;;;2.90;0.60;;;13.80;99.90;;;;;;4935950;29;20068;-85
2021/09/20 08:56:06;;;;;;;0.40;0.40;;;13.90;99.90;;;;;;4918923;29;20074;-87
2021/09/20 08:58:32;;;;;;;4.18;0.70;;;14.00;99.90;;;;;;4935751;29;20146;-85
2021/09/20 09:00:58;;;;;;;3.08;0.68;;;14.20;99.90;;;;;;4919404;29;20071;-85
2021/09/20 09:03:27;;;;;;;1.15;0.60;;;14.30;99.90;;;;;;4919133;29;20032;-87
2021/09/20 09:05:53;;;;;;;3.55;0.80;;;14.40;99.90;;;;;;4919252;29;20035;-87
2021/09/20 09:08:24;;;;;;;2.05;0.60;;;14.60;99.90;;;;;;4918854;29;20023;-87
2021/09/20 09:11:14;;;;;;;1.27;0.47;;;14.70;99.90;;;;;;4918941;29;20123;-87
2021/09/20 09:13:43;;;;;;;1.08;0.50;;;14.90;99.90;;;;;;4935900;29;20027;-88
2021/09/20 09:16:18;;;;;;;3.50;0.75;;;15.10;99.90;;;;;;4918921;29;20042;-87
2021/09/20 09:19:05;;;;;;;1.75;0.70;;;15.30;99.90;;;;;;4910631;29;20040;-87
2021/09/20 09:21:36;;;;;;;1.95;0.60;;;15.40;99.90;;;;;;4908109;29;20036;-88
2021/09/20 09:24:08;;;;;;;1.70;0.73;;;15.60;99.90;;;;;;4899790;29;20525;-88
2021/09/20 09:26:34;;;;;;;8.07;0.80;;;15.80;99.90;;;;;;4899563;29;20032;-87
2021/09/20 09:29:13;;;;;;;1.25;0.60;;;16.00;99.90;;;;;;4899633;29;20032;-87
2021/09/20 09:31:41;;;;;;;1.73;0.55;;;16.20;99.90;;;;;;4899566;29;20084;-86
2021/09/20 09:34:33;;;;;;;5.53;0.60;;;16.40;99.90;;;;;;4899583;29;20066;-86
2021/09/20 09:37:11;;;;;;;1.45;0.70;;;16.60;99.90;;;;;;4896478;29;20032;-86
2021/09/20 09:39:37;;;;;;;2.83;0.55;;;16.80;99.90;;;;;;4916472;29;20649;-86
2021/09/20 09:42:04;;;;;;;2.95;0.55;;;16.90;99.90;;;;;;4899427;29;20032;-86
2021/09/20 09:44:33;;;;;;;1.73;0.60;;;17.10;99.90;;;;;;4916094;29;20063;-86
2021/09/20 09:46:59;;;;;;;1.58;0.50;;;17.30;99.90;;;;;;4898916;29;20560;-86
2021/09/20 09:49:28;;;;;;;0.52;0.40;;;17.50;99.90;;;;;;4917654;29;20119;-88
2021/09/20 09:52:03;;;;;;;1.40;0.90;;;17.80;99.50;;;;;;4918076;29;20091;-87
2021/09/20 09:54:29;;;;;;;1.85;0.65;;;18.00;98.60;;;;;;4935252;29;20020;-87
2021/09/20 09:57:24;;;;;;;1.35;0.50;;;18.30;97.10;;;;;;4918205;29;20059;-87
2021/09/20 10:00:02;;;;;;;2.83;0.57;;;18.50;96.10;;;;;;4918269;29;20051;-88
2021/09/20 10:02:30;;;;;;;5.55;0.60;;;18.80;95.00;;;;;;4921094;29;20130;-87
2021/09/20 10:05:08;;;;;;;3.22;0.63;;;19.00;93.90;;;;;;4920223;29;20027;-87
2021/09/20 10:07:37;;;;;;;1.88;0.50;;;19.20;91.90;;;;;;4921422;29;20103;-87
2021/09/20 10:10:09;;;;;;;1.92;0.38;;;19.40;90.90;;;;;;4929577;29;20040;-87
2021/09/20 10:12:36;;;;;;;1.20;0.50;;;19.60;89.70;;;;;;4917119;29;20086;-88
2021/09/20 10:15:06;;;;;;;3.53;0.30;;;19.80;88.20;;;;;;4922892;29;20035;-89
2021/09/20 10:17:31;;;;;;;1.73;0.60;;;20.00;85.50;;;;;;4918173;29;20115;-90
2021/09/20 10:19:59;;;;;;;0.60;0.47;;;20.10;82.80;;;;;;4916998;29;20048;-91
2021/09/20 10:22:26;;;;;;;1.83;0.38;;;20.30;80.40;;;;;;4917664;29;20034;-90
2021/09/20 10:24:55;;;;;;;1.20;0.35;;;20.40;78.60;;;;;;4934732;29;20043;-91
2021/09/20 10:27:24;;;;;;;0.63;0.30;;;20.50;77.00;;;;;;4917893;29;20050;-92
2021/09/20 10:30:12;;;;;;;0.60;0.30;;;20.60;74.70;;;;;;4917663;29;20030;-91
2021/09/20 10:32:41;;;;;;;0.65;0.40;;;20.80;72.10;;;;;;4918059;29;20039;-90
2021/09/20 10:35:37;;;;;;;1.58;0.63;;;20.90;71.20;;;;;;4918872;29;20028;-91
2021/09/20 10:38:41;;;;;;;1.13;0.30;;;21.10;69.90;;;;;;4919072;29;20063;-91
2021/09/20 10:41:15;;;;;;;1.13;0.30;;;21.30;68.30;;;;;;4922126;29;20043;-91
2021/09/20 10:43:44;;;;;;;0.55;0.22;;;21.40;67.00;;;;;;4922841;29;20502;-92
2021/09/20 10:46:24;;;;;;;0.47;0.25;;;21.60;66.70;;;;;;4922259;29;20027;-91
2021/09/20 10:48:59;;;;;;;1.80;0.40;;;21.90;65.70;;;;;;4939245;29;20028;-91
2021/09/20 10:51:29;;;;;;;3.35;0.40;;;22.20;65.10;;;;;;4922092;29;20039;-91
2021/09/20 10:54:14;;;;;;;0.87;0.33;;;22.40;64.10;;;;;;4922302;29;20020;-92
2021/09/20 10:56:40;;;;;;;1.98;0.30;;;22.50;63.20;;;;;;4922490;29;20334;-90
2021/09/20 10:59:08;;;;;;;0.57;0.30;;;22.60;62.10;;;;;;4922138;29;20050;-91
2021/09/20 11:01:35;;;;;;;0.63;0.28;;;22.70;62.10;;;;;;4922073;29;20040;-91
2021/09/20 11:04:03;;;;;;;1.40;0.40;;;22.90;61.30;;;;;;4922193;29;20031;-92
2021/09/20 11:06:37;;;;;;;0.80;0.30;;;23.00;60.00;;;;;;4921928;29;20035;-90
2021/09/20 11:09:06;;;;;;;0.50;0.28;;;23.10;60.00;;;;;;4922103;29;20080;-91
2021/09/20 11:11:44;;;;;;;1.50;0.63;;;23.10;60.00;;;;;;4921783;29;20020;-92
2021/09/20 11:14:15;;;;;;;2.33;0.47;;;23.30;60.30;;;;;;4922302;29;20027;-91
2021/09/20 11:17:02;;;;;;;4.20;0.50;;;23.40;59.80;;;;;;4939118;29;20031;-91
2021/09/20 11:19:33;;;;;;;2.17;0.50;;;23.50;59.50;;;;;;4921797;29;20035;-92
2021/09/20 11:22:12;;;;;;;2.28;0.50;;;23.60;59.40;;;;;;4927890;29;20540;-91
2021/09/20 11:24:48;;;;;;;3.40;0.52;;;23.70;59.30;;;;;;4939301;29;20545;-89
2021/09/20 11:27:22;;;;;;;2.30;0.95;;;23.90;58.80;;;;;;4921760;29;20035;-91
2021/09/20 11:29:50;;;;;;;2.00;0.50;;;24.10;58.70;;;;;;4921684;29;20027;-91
2021/09/20 11:32:15;;;;;;;2.28;0.40;;;24.10;58.20;;;;;;4922082;29;20079;-91
2021/09/20 11:34:47;;;;;;;0.88;0.32;;;24.20;57.80;;;;;;4938569;29;20110;-93
2021/09/20 11:37:19;;;;;;;2.38;0.60;;;24.20;57.50;;;;;;4938619;29;20023;-92
2021/09/20 11:39:55;;;;;;;1.88;0.68;;;24.30;57.80;;;;;;4921515;29;20047;-90
2021/09/20 11:42:41;;;;;;;0.82;0.43;;;24.30;57.60;;;;;;4921447;29;20118;-92
2021/09/20 11:45:20;;;;;;;1.30;0.50;;;24.40;57.60;;;;;;4921668;29;20434;-92
2021/09/20 11:47:56;;;;;;;3.38;0.50;;;24.40;57.10;;;;;;4920552;29;20052;-92
2021/09/20 11:50:29;;;;;;;2.25;0.70;;;24.50;56.80;;;;;;4920736;29;20032;-92
2021/09/20 11:53:00;;;;;;;5.07;0.95;;;24.60;57.20;;;;;;4920695;29;20028;-91
2021/09/20 11:55:30;;;;;;;3.97;0.93;;;24.70;57.20;;;;;;4921514;29;20383;-92
2021/09/20 11:57:58;;;;;;;4.50;0.88;;;24.70;56.90;;;;;;4920992;29;20111;-92
2021/09/20 12:00:28;;;;;;;1.15;0.68;;;24.70;57.10;;;;;;4921012;29;20042;-92
2021/09/20 12:02:55;;;;;;;4.80;1.30;;;24.70;57.10;;;;;;4921246;29;20545;-91
2021/09/20 12:05:22;;;;;;;3.05;1.33;;;24.70;57.40;;;;;;4938410;29;20027;-93
2021/09/20 12:07:57;;;;;;;2.42;1.10;;;24.80;57.30;;;;;;4921456;29;20418;-90
2021/09/20 12:10:28;;;;;;;2.53;1.00;;;24.70;57.20;;;;;;4921009;29;20085;-92
2021/09/20 12:12:56;;;;;;;3.83;1.08;;;24.70;57.40;;;;;;4920947;29;20028;-91
2021/09/20 12:15:26;;;;;;;3.10;1.17;;;24.50;57.30;;;;;;4920717;29;20044;-91
2021/09/20 12:18:00;;;;;;;6.30;1.52;;;24.30;58.10;;;;;;4920802;29;20036;-90
2021/09/20 12:20:26;;;;;;;6.57;1.20;;;24.40;58.40;;;;;;4921079;29;20067;-89
2021/09/20 12:22:53;;;;;;;6.72;1.88;;;24.50;58.30;;;;;;4920585;29;20043;-90
2021/09/20 12:25:28;;;;;;;8.20;2.03;;;24.70;58.40;;;;;;4920736;29;20027;-90
2021/09/20 12:27:56;;;;;;;2.97;1.48;;;24.90;58.40;;;;;;4920480;29;20032;-91
2021/09/20 12:30:23;;;;;;;3.80;1.70;;;25.20;58.20;;;;;;4920672;29;20027;-92
2021/09/20 12:33:00;;;;;;;3.78;1.80;;;25.50;57.60;;;;;;4920367;29;20062;-93
2021/09/20 12:35:30;;;;;;;3.03;1.20;;;25.60;57.00;;;;;;4920383;29;20032;-90
2021/09/20 12:38:13;;;;;;;3.53;1.10;;;25.80;57.00;;;;;;4920576;29;20039;-92
2021/09/20 12:40:39;;;;;;;4.15;1.20;;;25.90;56.40;;;;;;4937321;29;20067;-92
2021/09/20 12:43:22;;;;;;;1.90;1.20;;;26.00;56.10;;;;;;4920266;29;20055;-92
2021/09/20 12:45:48;;;;;;;2.90;1.33;;;26.00;55.70;;;;;;4920042;29;20039;-90
2021/09/20 12:48:15;;;;;;;2.78;1.02;;;25.90;55.90;;;;;;4920200;29;20024;-92
2021/09/20 12:50:46;;;;;;;2.50;1.10;;;25.90;56.30;;;;;;4920166;29;20075;-90
2021/09/20 12:53:19;;;;;;;6.60;1.48;;;26.00;56.10;;;;;;4920311;29;20032;-91